createdAt,value
2019-05-03T00:01:56.703Z,36.05
2019-05-03T00:04:31.585Z,36.08
2019-05-03T00:07:05.517Z,36.09
2019-05-03T00:09:39.281Z,36.09
2019-05-03T00:12:13.193Z,36.07
2019-05-03T00:14:49.238Z,36.06
2019-05-03T00:17:23.153Z,36.08
2019-05-03T00:19:57.019Z,36.08
2019-05-03T00:22:32.368Z,36.08
2019-05-03T00:25:08.427Z,36.05
2019-05-03T00:27:42.764Z,36.08
2019-05-03T00:30:16.705Z,36.09
2019-05-03T00:32:52.178Z,36.09
2019-05-03T00:35:35.636Z,36.05
2019-05-03T00:38:12.289Z,36.05
2019-05-03T00:40:46.090Z,36.03
2019-05-03T00:43:19.827Z,36.02
2019-05-03T00:45:53.595Z,36.01
2019-05-03T00:48:27.366Z,36.00
2019-05-03T00:51:02.408Z,36.02
2019-05-03T00:53:36.236Z,35.98
2019-05-03T00:56:12.135Z,36.00
2019-05-03T00:58:55.657Z,36.01
2019-05-03T01:01:29.418Z,36.00
2019-05-03T01:04:03.190Z,36.00
2019-05-03T01:06:36.957Z,35.96
2019-05-03T01:09:17.460Z,35.96
2019-05-03T01:11:52.476Z,35.94
2019-05-03T01:14:26.154Z,35.89
2019-05-03T01:16:59.826Z,35.92
2019-05-03T01:19:34.349Z,35.93
2019-05-03T01:22:08.314Z,35.92
2019-05-03T01:24:42.804Z,35.89
2019-05-03T01:27:16.834Z,35.90
2019-05-03T01:29:51.929Z,35.90
2019-05-03T01:32:26.998Z,35.90
2019-05-03T01:35:03.201Z,35.87
2019-05-03T01:37:38.368Z,35.87
2019-05-03T01:40:12.638Z,35.84
2019-05-03T01:42:46.479Z,35.83
2019-05-03T01:45:20.233Z,35.83
2019-05-03T01:48:09.766Z,35.83
2019-05-03T01:50:52.169Z,35.83
2019-05-03T01:53:27.409Z,35.77
2019-05-03T01:56:01.168Z,35.72
2019-05-03T01:58:34.866Z,35.75
2019-05-03T02:01:18.939Z,35.74
2019-05-03T02:04:06.008Z,35.71
2019-05-03T02:06:39.672Z,35.71
2019-05-03T02:09:13.430Z,35.71
2019-05-03T02:11:47.276Z,35.68
2019-05-03T02:14:22.293Z,35.68
2019-05-03T02:16:55.970Z,35.65
2019-05-03T02:19:29.945Z,35.65
2019-05-03T02:22:03.787Z,35.62
2019-05-03T02:24:37.660Z,35.63
2019-05-03T02:27:12.764Z,35.63
2019-05-03T02:29:46.594Z,35.63
2019-05-03T02:32:23.200Z,35.59
2019-05-03T02:34:57.276Z,35.60
2019-05-03T02:37:32.990Z,35.56
2019-05-03T02:40:06.525Z,35.56
2019-05-03T02:42:40.551Z,35.58
2019-05-03T02:45:20.878Z,35.54
2019-05-03T02:48:06.034Z,35.55
2019-05-03T02:50:39.948Z,35.53
2019-05-03T02:53:15.250Z,35.49
2019-05-03T02:55:49.204Z,35.49
2019-05-03T02:58:25.366Z,35.42
2019-05-03T03:01:00.923Z,35.39
2019-05-03T03:03:36.714Z,35.40
2019-05-03T03:06:10.630Z,35.44
2019-05-03T03:08:45.512Z,35.41
2019-05-03T03:11:19.737Z,35.39
2019-05-03T03:13:55.248Z,35.38
2019-05-03T03:16:29.177Z,35.39
2019-05-03T03:19:06.635Z,35.24
2019-05-03T03:21:42.639Z,35.29
2019-05-03T03:24:18.772Z,35.33
2019-05-03T03:26:52.610Z,35.34
2019-05-03T03:29:28.593Z,35.36
2019-05-03T03:32:21.080Z,35.36
2019-05-03T03:35:11.990Z,35.35
2019-05-03T03:37:46.023Z,35.23
2019-05-03T03:40:19.598Z,35.31
2019-05-03T03:42:55.593Z,35.28
2019-05-03T03:45:28.910Z,35.29
2019-05-03T03:48:05.212Z,35.27
2019-05-03T03:50:38.369Z,35.31
2019-05-03T03:53:15.428Z,35.31
2019-05-03T03:55:49.969Z,35.31
2019-05-03T03:58:26.733Z,35.30
2019-05-03T04:00:59.076Z,35.32
2019-05-03T04:03:32.968Z,35.29
2019-05-03T04:06:06.825Z,35.29
2019-05-03T04:08:40.540Z,35.27
2019-05-03T04:11:15.608Z,35.26
2019-05-03T04:13:49.689Z,35.25
2019-05-03T04:16:31.866Z,35.25
2019-05-03T04:19:10.733Z,35.23
2019-05-03T04:21:45.338Z,35.24
2019-05-03T04:24:19.170Z,35.23
2019-05-03T04:27:15.511Z,35.22
2019-05-03T04:29:40.988Z,35.21
2019-05-03T04:32:15.645Z,35.20
2019-05-03T04:34:49.698Z,35.20
2019-05-03T04:37:26.296Z,35.20
2019-05-03T04:39:58.971Z,35.18
2019-05-03T04:42:35.478Z,35.16
2019-05-03T04:45:08.226Z,35.18
2019-05-03T04:47:42.553Z,35.17
2019-05-03T04:50:16.712Z,35.17
2019-05-03T04:52:50.667Z,35.15
2019-05-03T04:55:26.852Z,35.15
2019-05-03T04:58:00.829Z,35.17
2019-05-03T05:00:35.923Z,35.14
2019-05-03T05:03:09.880Z,35.16
2019-05-03T05:05:45.300Z,35.14
2019-05-03T05:08:19.299Z,35.13
2019-05-03T05:10:55.821Z,35.13
2019-05-03T05:13:28.630Z,35.13
2019-05-03T05:16:02.515Z,35.12
2019-05-03T05:18:45.728Z,35.11
2019-05-03T05:21:44.815Z,35.09
2019-05-03T05:24:18.635Z,35.09
2019-05-03T05:27:01.763Z,35.05
2019-05-03T05:29:37.272Z,35.04
2019-05-03T05:32:10.970Z,35.04
2019-05-03T05:34:46.088Z,35.02
2019-05-03T05:37:20.552Z,35.01
2019-05-03T05:39:55.056Z,35.00
2019-05-03T05:42:28.886Z,34.98
2019-05-03T05:45:04.831Z,34.96
2019-05-03T05:47:54.789Z,34.97
2019-05-03T05:50:39.878Z,34.94
2019-05-03T05:53:15.261Z,34.95
2019-05-03T05:55:58.969Z,34.94
2019-05-03T05:58:46.795Z,34.93
2019-05-03T06:01:27.408Z,34.90
2019-05-03T06:04:01.064Z,34.92
2019-05-03T06:06:52.410Z,34.90
2019-05-03T06:09:41.668Z,34.87
2019-05-03T06:12:30.865Z,34.93
2019-05-03T06:15:09.792Z,34.94
2019-05-03T06:17:51.614Z,34.94
2019-05-03T06:20:45.404Z,34.94
2019-05-03T06:23:36.591Z,34.95
2019-05-03T06:26:31.830Z,34.93
2019-05-03T06:29:06.056Z,34.92
2019-05-03T06:31:58.802Z,35.05
2019-05-03T06:34:35.328Z,34.93
2019-05-03T06:37:12.453Z,34.94
2019-05-03T06:39:46.294Z,34.94
2019-05-03T06:42:22.833Z,34.93
2019-05-03T06:44:59.692Z,34.96
2019-05-03T06:47:30.628Z,34.94
2019-05-03T06:50:05.493Z,34.99
2019-05-03T06:52:41.012Z,34.96
2019-05-03T06:55:14.738Z,35.00
2019-05-03T06:57:49.844Z,34.97
2019-05-03T07:00:45.385Z,34.99
2019-05-03T07:03:28.676Z,35.05
2019-05-03T07:06:40.585Z,35.04
2019-05-03T07:09:31.912Z,35.05
2019-05-03T07:12:05.845Z,35.02
2019-05-03T07:14:39.657Z,35.10
2019-05-03T07:17:14.502Z,35.36
2019-05-03T07:19:48.218Z,35.17
2019-05-03T07:22:24.433Z,35.51
2019-05-03T07:24:58.379Z,35.26
2019-05-03T07:27:32.398Z,35.21
2019-05-03T07:30:06.259Z,35.22
2019-05-03T07:32:41.907Z,35.29
2019-05-03T07:35:15.853Z,35.56
2019-05-03T07:37:50.041Z,35.48
2019-05-03T07:40:25.252Z,35.40
2019-05-03T07:43:01.004Z,35.37
2019-05-03T07:45:35.493Z,35.46
2019-05-03T07:48:11.205Z,35.29
2019-05-03T07:50:45.163Z,35.34
2019-05-03T07:53:19.214Z,35.30
2019-05-03T07:56:06.867Z,35.29
2019-05-03T07:58:42.352Z,35.23
2019-05-03T08:01:27.345Z,35.40
2019-05-03T08:04:01.098Z,35.69
2019-05-03T08:06:35.078Z,36.07
2019-05-03T08:09:11.759Z,36.43
2019-05-03T08:11:46.673Z,36.39
2019-05-03T08:14:20.683Z,35.36
2019-05-03T08:16:55.782Z,34.77
2019-05-03T08:19:29.705Z,35.26
2019-05-03T08:22:04.772Z,35.74
2019-05-03T08:24:39.148Z,35.88
2019-05-03T08:27:14.837Z,35.77
2019-05-03T08:29:48.840Z,35.99
2019-05-03T08:32:31.833Z,36.10
2019-05-03T08:35:28.225Z,36.36
2019-05-03T08:38:04.941Z,35.96
2019-05-03T08:40:45.546Z,35.86
2019-05-03T08:43:19.449Z,36.01
2019-05-03T08:45:55.370Z,36.03
2019-05-03T08:48:29.678Z,36.08
2019-05-03T08:51:04.589Z,36.37
2019-05-03T08:53:38.825Z,36.21
2019-05-03T08:56:12.885Z,36.28
2019-05-03T08:58:47.354Z,36.19
2019-05-03T09:01:21.922Z,36.18
2019-05-03T09:03:55.966Z,36.36
2019-05-03T09:06:29.923Z,36.10
2019-05-03T09:09:06.490Z,36.27
2019-05-03T09:11:40.424Z,35.72
2019-05-03T09:14:15.035Z,34.76
2019-05-03T09:16:48.836Z,34.60
2019-05-03T09:19:25.208Z,34.51
2019-05-03T09:21:58.427Z,34.65
2019-05-03T09:24:32.351Z,34.21
2019-05-03T09:27:06.258Z,34.56
2019-05-03T09:29:43.417Z,34.28
2019-05-03T09:32:17.403Z,34.17
2019-05-03T09:34:52.544Z,34.13
2019-05-03T09:37:26.196Z,33.93
2019-05-03T09:39:59.925Z,33.67
2019-05-03T09:42:35.229Z,33.76
2019-05-03T09:45:09.955Z,33.69
2019-05-03T09:47:44.805Z,34.25
2019-05-03T09:50:18.854Z,33.92
2019-05-03T09:52:55.468Z,33.82
2019-05-03T09:55:35.365Z,33.88
2019-05-03T09:58:09.080Z,33.67
2019-05-03T10:00:44.638Z,33.29
2019-05-03T10:03:20.188Z,32.78
2019-05-03T10:05:55.523Z,33.36
2019-05-03T10:08:29.261Z,34.07
2019-05-03T10:11:15.649Z,33.96
2019-05-03T10:13:49.272Z,33.95
2019-05-03T10:16:24.919Z,34.05
2019-05-03T10:18:58.904Z,34.15
2019-05-03T10:21:35.539Z,34.27
2019-05-03T10:24:09.783Z,34.35
2019-05-03T10:26:45.416Z,34.38
2019-05-03T10:29:19.083Z,34.61
2019-05-03T10:32:00.140Z,35.10
2019-05-03T10:34:35.678Z,35.46
2019-05-03T10:37:12.284Z,35.51
2019-05-03T10:39:46.237Z,35.71
2019-05-03T10:42:19.983Z,35.77
2019-05-03T10:44:55.527Z,35.74
2019-05-03T10:47:29.422Z,35.87
2019-05-03T10:50:04.711Z,35.98
2019-05-03T10:52:44.587Z,36.30
2019-05-03T10:55:18.604Z,35.82
2019-05-03T10:58:09.530Z,35.90
2019-05-03T11:00:52.268Z,37.38
2019-05-03T11:03:20.594Z,36.12
2019-05-03T11:05:54.818Z,37.81
2019-05-03T11:08:28.792Z,37.75
2019-05-03T11:11:02.647Z,37.70
2019-05-03T11:13:36.400Z,37.59
2019-05-03T11:16:10.202Z,37.54
2019-05-03T11:18:45.578Z,37.68
2019-05-03T11:21:28.233Z,37.59
2019-05-03T11:23:55.079Z,37.70
2019-05-03T11:26:28.805Z,37.45
2019-05-03T11:29:05.005Z,37.47
2019-05-03T11:31:57.776Z,37.40
2019-05-03T11:34:38.056Z,37.44
2019-05-03T11:37:34.601Z,37.42
2019-05-03T11:40:08.848Z,37.46
2019-05-03T11:42:44.654Z,37.41
2019-05-03T11:45:18.273Z,37.60
2019-05-03T11:47:52.262Z,37.53
2019-05-03T11:50:25.983Z,37.49
2019-05-03T11:52:59.884Z,37.44
2019-05-03T11:55:35.217Z,37.40
2019-05-03T11:58:20.400Z,37.36
2019-05-03T12:01:14.874Z,37.34
2019-05-03T12:03:45.123Z,37.52
2019-05-03T12:06:19.653Z,36.86
2019-05-03T12:08:55.249Z,36.96
2019-05-03T12:11:30.800Z,37.13
2019-05-03T12:14:15.399Z,36.97
2019-05-03T12:17:18.109Z,37.00
2019-05-03T12:19:41.797Z,36.96
2019-05-03T12:22:16.729Z,36.97
2019-05-03T12:24:51.650Z,36.97
2019-05-03T12:27:25.617Z,36.94
2019-05-03T12:29:59.493Z,36.97
2019-05-03T12:32:34.557Z,37.12
2019-05-03T12:35:08.548Z,36.98
2019-05-03T12:37:42.360Z,37.13
2019-05-03T12:40:15.982Z,37.24
2019-05-03T12:42:49.848Z,37.22
2019-05-03T12:45:24.785Z,37.21
2019-05-03T12:47:58.696Z,37.11
2019-05-03T12:50:34.633Z,37.12
2019-05-03T12:53:08.364Z,37.03
2019-05-03T12:55:42.747Z,37.01
2019-05-03T12:58:17.345Z,37.06
2019-05-03T13:01:08.203Z,36.99
2019-05-03T13:03:49.806Z,36.66
2019-05-03T13:06:25.383Z,36.73
2019-05-03T13:08:59.023Z,36.79
2019-05-03T13:11:36.540Z,37.03
2019-05-03T13:14:10.196Z,36.92
2019-05-03T13:16:44.525Z,37.18
2019-05-03T13:19:18.455Z,37.17
2019-05-03T13:21:55.553Z,37.27
2019-05-03T13:24:29.372Z,37.52
2019-05-03T13:27:03.013Z,37.41
2019-05-03T13:29:36.780Z,37.42
2019-05-03T13:32:10.704Z,37.36
2019-05-03T13:34:44.791Z,37.73
2019-05-03T13:37:18.616Z,37.68
2019-05-03T13:39:52.474Z,37.81
2019-05-03T13:42:26.364Z,37.93
2019-05-03T13:45:00.116Z,37.65
2019-05-03T13:47:35.432Z,37.59
2019-05-03T13:50:09.514Z,37.80
2019-05-03T13:52:45.139Z,37.91
2019-05-03T13:55:18.649Z,37.95
2019-05-03T13:57:54.705Z,38.06
2019-05-03T14:00:28.123Z,37.92
2019-05-03T14:03:04.425Z,37.83
2019-05-03T14:05:38.041Z,37.76
2019-05-03T14:08:12.084Z,37.64
2019-05-03T14:10:45.879Z,37.64
2019-05-03T14:13:19.712Z,37.58
2019-05-03T14:15:54.809Z,37.56
2019-05-03T14:18:28.758Z,37.46
2019-05-03T14:21:10.122Z,37.41
2019-05-03T14:24:01.486Z,37.34
2019-05-03T14:26:35.335Z,37.36
2019-05-03T14:29:10.461Z,37.86
2019-05-03T14:31:45.461Z,37.81
2019-05-03T14:34:19.261Z,38.05
2019-05-03T14:36:55.295Z,37.80
2019-05-03T14:39:28.522Z,37.52
2019-05-03T14:42:02.334Z,37.70
2019-05-03T14:44:36.163Z,37.84
2019-05-03T14:47:09.798Z,37.65
2019-05-03T14:49:43.521Z,37.69
2019-05-03T14:52:17.722Z,37.96
2019-05-03T14:54:53.546Z,37.90
2019-05-03T14:57:31.726Z,38.05
2019-05-03T15:00:30.691Z,37.85
2019-05-03T15:03:16.335Z,37.94
2019-05-03T15:05:50.048Z,37.88
2019-05-03T15:08:25.628Z,38.19
2019-05-03T15:10:59.271Z,37.85
2019-05-03T15:13:34.863Z,38.04
2019-05-03T15:16:08.500Z,37.86
2019-05-03T15:18:42.296Z,37.72
2019-05-03T15:21:16.176Z,37.53
2019-05-03T15:23:51.462Z,37.44
2019-05-03T15:26:25.226Z,37.38
2019-05-03T15:28:59.008Z,37.36
2019-05-03T15:31:35.192Z,37.29
2019-05-03T15:34:08.554Z,37.28
2019-05-03T15:36:42.355Z,37.27
2019-05-03T15:39:16.964Z,37.28
2019-05-03T15:41:50.632Z,37.24
2019-05-03T15:44:45.030Z,37.21
2019-05-03T15:47:32.803Z,37.18
2019-05-03T15:50:06.648Z,37.12
2019-05-03T15:52:40.320Z,37.07
2019-05-03T15:55:15.217Z,37.05
2019-05-03T15:57:49.127Z,37.05
2019-05-03T16:00:24.467Z,37.00
2019-05-03T16:03:08.131Z,36.94
2019-05-03T16:05:35.488Z,36.99
2019-05-03T16:08:09.384Z,36.99
2019-05-03T16:10:43.098Z,37.17
2019-05-03T16:13:16.900Z,37.05
2019-05-03T16:15:50.666Z,37.02
2019-05-03T16:18:24.666Z,37.15
2019-05-03T16:20:58.459Z,37.12
2019-05-03T16:23:32.471Z,37.10
2019-05-03T16:26:06.343Z,37.02
2019-05-03T16:28:55.238Z,36.97
2019-05-03T16:31:29.208Z,37.04
2019-05-03T16:34:04.329Z,37.05
2019-05-03T16:36:38.176Z,36.96
2019-05-03T16:39:12.130Z,36.95
2019-05-03T16:41:46.032Z,36.93
2019-05-03T16:44:19.766Z,36.92
2019-05-03T16:46:55.367Z,36.92
2019-05-03T16:49:29.419Z,36.91
2019-05-03T16:52:03.257Z,37.23
2019-05-03T16:54:37.221Z,37.20
2019-05-03T16:57:10.938Z,37.08
2019-05-03T16:59:44.572Z,37.36
2019-05-03T17:02:18.562Z,37.36
2019-05-03T17:05:01.850Z,37.56
2019-05-03T17:07:40.451Z,37.47
2019-05-03T17:10:36.405Z,37.38
2019-05-03T17:13:10.190Z,37.32
2019-05-03T17:15:43.958Z,37.67
2019-05-03T17:18:17.862Z,37.41
2019-05-03T17:20:51.966Z,37.31
2019-05-03T17:23:25.808Z,37.51
2019-05-03T17:25:59.526Z,37.65
2019-05-03T17:28:35.208Z,37.47
2019-05-03T17:31:08.759Z,37.74
2019-05-03T17:33:52.995Z,37.55
2019-05-03T17:36:18.460Z,38.14
2019-05-03T17:38:55.131Z,37.62
2019-05-03T17:41:47.690Z,37.54
2019-05-03T17:44:25.346Z,37.54
2019-05-03T17:46:59.238Z,37.56
2019-05-03T17:49:34.756Z,37.50
2019-05-03T17:52:28.236Z,38.00
2019-05-03T17:55:24.456Z,37.76
2019-05-03T17:58:06.440Z,37.60
2019-05-03T18:01:02.021Z,37.48
2019-05-03T18:03:39.542Z,37.89
2019-05-03T18:06:20.213Z,37.52
2019-05-03T18:09:14.795Z,37.49
2019-05-03T18:11:53.587Z,37.44
2019-05-03T18:14:27.520Z,37.40
2019-05-03T18:17:01.180Z,37.34
2019-05-03T18:19:34.800Z,37.34
2019-05-03T18:22:08.647Z,37.41
2019-05-03T18:24:42.472Z,37.26
2019-05-03T18:27:16.322Z,37.31
2019-05-03T18:29:50.151Z,37.31
2019-05-03T18:32:25.180Z,37.27
2019-05-03T18:34:59.223Z,37.25
2019-05-03T18:37:34.849Z,37.20
2019-05-03T18:40:08.778Z,37.18
2019-05-03T18:42:47.340Z,37.26
2019-05-03T18:45:28.362Z,37.54
2019-05-03T18:48:02.471Z,37.34
2019-05-03T18:50:36.150Z,37.30
2019-05-03T18:53:09.789Z,37.30
2019-05-03T18:55:44.443Z,37.41
2019-05-03T18:58:18.417Z,37.26
2019-05-03T19:00:54.749Z,37.36
2019-05-03T19:03:28.200Z,37.35
2019-05-03T19:06:05.350Z,37.32
2019-05-03T19:08:56.553Z,37.29
2019-05-03T19:11:40.762Z,37.33
2019-05-03T19:14:16.418Z,37.43
2019-05-03T19:17:00.452Z,37.43
2019-05-03T19:19:37.097Z,37.50
2019-05-03T19:22:10.954Z,37.54
2019-05-03T19:24:44.752Z,37.52
2019-05-03T19:27:18.675Z,37.49
2019-05-03T19:29:52.467Z,37.49
2019-05-03T19:32:28.333Z,37.48
2019-05-03T19:35:05.018Z,37.47
2019-05-03T19:37:39.037Z,37.46
2019-05-03T19:40:13.125Z,37.45
2019-05-03T19:42:47.058Z,37.40
2019-05-03T19:45:21.018Z,37.38
2019-05-03T19:47:55.292Z,37.38
2019-05-03T19:50:29.281Z,37.34
2019-05-03T19:53:08.002Z,37.33
2019-05-03T19:55:41.874Z,37.30
2019-05-03T19:58:15.994Z,37.28
2019-05-03T20:01:08.396Z,37.25
2019-05-03T20:03:48.849Z,37.24
2019-05-03T20:06:35.313Z,37.23
2019-05-03T20:09:15.103Z,37.20
2019-05-03T20:11:49.139Z,37.20
2019-05-03T20:14:23.098Z,37.15
2019-05-03T20:16:58.234Z,37.14
2019-05-03T20:19:32.068Z,37.12
2019-05-03T20:22:05.971Z,37.13
2019-05-03T20:24:39.795Z,37.09
2019-05-03T20:27:15.152Z,37.21
2019-05-03T20:29:49.164Z,37.13
2019-05-03T20:32:25.063Z,37.14
2019-05-03T20:35:10.169Z,37.10
2019-05-03T20:37:34.322Z,37.06
2019-05-03T20:40:08.439Z,37.04
2019-05-03T20:43:01.623Z,37.02
2019-05-03T20:45:54.823Z,37.01
2019-05-03T20:48:28.682Z,37.17
2019-05-03T20:51:02.429Z,37.04
2019-05-03T20:53:36.443Z,37.01
2019-05-03T20:56:10.231Z,37.02
2019-05-03T20:58:44.674Z,37.01
2019-05-03T21:01:18.560Z,37.00
2019-05-03T21:03:54.237Z,36.98
2019-05-03T21:06:35.441Z,36.96
2019-05-03T21:09:04.737Z,36.92
2019-05-03T21:11:38.847Z,36.93
2019-05-03T21:14:15.262Z,36.90
2019-05-03T21:17:05.932Z,36.88
2019-05-03T21:19:56.639Z,36.87
2019-05-03T21:22:35.503Z,36.87
2019-05-03T21:25:20.312Z,36.84
2019-05-03T21:27:55.543Z,36.82
2019-05-03T21:30:29.349Z,36.81
2019-05-03T21:33:03.014Z,36.80
2019-05-03T21:35:41.430Z,36.76
2019-05-03T21:38:12.437Z,36.73
2019-05-03T21:40:46.615Z,36.71
2019-05-03T21:43:20.427Z,36.71
2019-05-03T21:46:01.093Z,36.70
2019-05-03T21:48:55.840Z,36.68
2019-05-03T21:51:30.291Z,36.66
2019-05-03T21:54:06.600Z,36.64
2019-05-03T21:56:39.423Z,36.63
2019-05-03T21:59:13.130Z,36.61
2019-05-03T22:01:48.262Z,36.58
2019-05-03T22:04:22.180Z,36.58
2019-05-03T22:06:55.991Z,36.55
2019-05-03T22:09:29.876Z,36.53
2019-05-03T22:12:05.223Z,36.53
2019-05-03T22:14:47.214Z,36.50
2019-05-03T22:17:51.776Z,36.49
2019-05-03T22:20:40.490Z,36.48
2019-05-03T22:23:34.153Z,36.45
2019-05-03T22:26:08.650Z,36.44
2019-05-03T22:28:44.431Z,36.44
2019-05-03T22:31:18.374Z,36.41
2019-05-03T22:33:52.234Z,36.39
2019-05-03T22:36:26.116Z,36.38
2019-05-03T22:38:59.966Z,36.36
2019-05-03T22:41:34.735Z,36.40
2019-05-03T22:44:08.795Z,36.35
2019-05-03T22:46:44.628Z,36.33
2019-05-03T22:49:18.425Z,36.33
2019-05-03T22:51:54.290Z,36.31
2019-05-03T22:54:27.978Z,36.28
2019-05-03T22:57:01.919Z,36.24
2019-05-03T22:59:35.627Z,36.24
2019-05-03T23:02:09.383Z,36.24
2019-05-03T23:04:44.910Z,36.25
2019-05-03T23:07:20.776Z,36.23
2019-05-03T23:09:54.498Z,36.22
2019-05-03T23:12:28.234Z,36.20
2019-05-03T23:15:02.227Z,36.19
2019-05-03T23:17:35.840Z,36.18
2019-05-03T23:20:18.022Z,36.16
2019-05-03T23:22:52.026Z,36.14
2019-05-03T23:25:25.725Z,36.11
2019-05-03T23:27:59.596Z,36.10
2019-05-03T23:30:33.421Z,36.10
2019-05-03T23:33:07.183Z,36.07
2019-05-03T23:35:41.108Z,36.04
2019-05-03T23:38:15.132Z,36.00
2019-05-03T23:40:49.040Z,35.99
2019-05-03T23:43:25.040Z,35.97
2019-05-03T23:45:58.532Z,35.96
2019-05-03T23:48:32.154Z,35.94
2019-05-03T23:51:06.138Z,35.92
2019-05-03T23:53:39.858Z,35.92
2019-05-03T23:56:18.913Z,35.90
2019-05-03T23:58:55.021Z,35.85
